createdAt,value
2019-02-09T00:00:45.031Z,14.10
2019-02-09T00:03:13.609Z,14.00
2019-02-09T00:05:42.241Z,15.07
2019-02-09T00:08:11.663Z,15.40
2019-02-09T00:10:40.496Z,16.87
2019-02-09T00:13:09.053Z,11.47
2019-02-09T00:15:37.688Z,13.13
2019-02-09T00:18:07.259Z,11.63
2019-02-09T00:20:35.875Z,14.13
2019-02-09T00:23:04.997Z,9.27
2019-02-09T00:25:33.759Z,11.60
2019-02-09T00:28:02.372Z,13.37
2019-02-09T00:30:30.991Z,15.37
2019-02-09T00:32:59.663Z,10.50
2019-02-09T00:35:28.301Z,15.73
2019-02-09T00:37:56.857Z,13.80
2019-02-09T00:40:29.946Z,12.77
2019-02-09T00:42:58.562Z,13.87
2019-02-09T00:45:27.885Z,11.50
2019-02-09T00:47:56.681Z,9.13
2019-02-09T00:50:25.614Z,11.53
2019-02-09T00:52:54.343Z,19.03
2019-02-09T00:55:27.692Z,18.23
2019-02-09T00:57:56.516Z,14.83
2019-02-09T01:00:32.848Z,10.70
2019-02-09T01:03:01.634Z,12.07
2019-02-09T01:05:41.463Z,12.10
2019-02-09T01:08:10.214Z,10.87
2019-02-09T01:10:38.836Z,11.17
2019-02-09T01:13:07.606Z,10.03
2019-02-09T01:15:36.636Z,11.63
2019-02-09T01:18:05.830Z,10.57
2019-02-09T01:20:34.558Z,11.27
2019-02-09T01:23:03.287Z,6.93
2019-02-09T01:25:31.900Z,9.50
2019-02-09T01:28:00.708Z,7.63
2019-02-09T01:30:30.131Z,6.60
2019-02-09T01:32:58.953Z,9.23
2019-02-09T01:35:27.610Z,11.50
2019-02-09T01:37:56.334Z,7.20
2019-02-09T01:40:27.196Z,11.90
2019-02-09T01:42:56.221Z,8.17
2019-02-09T01:45:29.850Z,7.83
2019-02-09T01:47:58.618Z,7.57
2019-02-09T01:50:32.007Z,9.40
2019-02-09T01:53:01.033Z,10.93
2019-02-09T01:55:29.895Z,9.00
2019-02-09T01:57:59.323Z,10.97
2019-02-09T02:00:30.360Z,9.63
2019-02-09T02:02:59.445Z,12.53
2019-02-09T02:05:28.443Z,11.80
2019-02-09T02:07:56.928Z,14.57
2019-02-09T02:10:35.904Z,13.87
2019-02-09T02:13:06.638Z,17.20
2019-02-09T02:15:35.460Z,17.03
2019-02-09T02:18:04.905Z,17.10
2019-02-09T02:20:33.962Z,17.77
2019-02-09T02:23:02.515Z,19.60
2019-02-09T02:25:31.284Z,15.47
2019-02-09T02:27:59.905Z,19.53
2019-02-09T02:30:36.860Z,21.83
2019-02-09T02:33:06.583Z,15.07
2019-02-09T02:35:35.514Z,13.80
2019-02-09T02:38:04.373Z,15.90
2019-02-09T02:40:32.989Z,13.93
2019-02-09T02:43:01.606Z,15.63
2019-02-09T02:45:30.517Z,10.90
2019-02-09T02:47:59.233Z,13.67
2019-02-09T02:50:27.963Z,17.33
2019-02-09T02:52:56.744Z,21.83
2019-02-09T02:55:27.717Z,20.67
2019-02-09T02:57:56.359Z,12.13
2019-02-09T03:00:32.454Z,13.00
2019-02-09T03:02:57.387Z,18.07
2019-02-09T03:05:26.288Z,13.10
2019-02-09T03:07:55.795Z,15.23
2019-02-09T03:10:24.523Z,19.27
2019-02-09T03:12:53.487Z,15.43
2019-02-09T03:15:27.431Z,18.30
2019-02-09T03:17:56.243Z,14.20
2019-02-09T03:20:24.894Z,16.03
2019-02-09T03:22:53.527Z,16.80
2019-02-09T03:25:25.117Z,20.47
2019-02-09T03:27:53.779Z,13.70
2019-02-09T03:30:24.630Z,18.67
2019-02-09T03:32:53.282Z,23.27
2019-02-09T03:35:22.401Z,18.03
2019-02-09T03:37:51.023Z,13.03
2019-02-09T03:40:29.145Z,13.73
2019-02-09T03:42:57.899Z,11.80
2019-02-09T03:45:33.634Z,22.03
2019-02-09T03:48:02.768Z,14.37
2019-02-09T03:50:32.707Z,19.43
2019-02-09T03:53:01.800Z,16.03
2019-02-09T03:55:30.524Z,13.43
2019-02-09T03:57:59.166Z,23.53
2019-02-09T04:00:32.914Z,14.50
2019-02-09T04:03:03.392Z,14.00
2019-02-09T04:05:32.027Z,20.13
2019-02-09T04:08:00.678Z,15.30
2019-02-09T04:10:29.436Z,12.87
2019-02-09T04:12:58.047Z,13.73
2019-02-09T04:15:27.716Z,15.87
2019-02-09T04:17:56.637Z,18.00
2019-02-09T04:20:26.250Z,13.87
2019-02-09T04:22:55.314Z,10.13
2019-02-09T04:25:24.336Z,18.70
2019-02-09T04:27:53.158Z,14.83
2019-02-09T04:30:24.208Z,12.30
2019-02-09T04:32:52.860Z,13.23
2019-02-09T04:35:21.572Z,12.80
2019-02-09T04:37:50.453Z,19.73
2019-02-09T04:40:21.562Z,20.53
2019-02-09T04:42:50.190Z,13.63
2019-02-09T04:45:19.353Z,20.40
2019-02-09T04:47:48.014Z,26.80
2019-02-09T04:50:17.379Z,16.47
2019-02-09T04:52:46.050Z,20.27
2019-02-09T04:55:19.713Z,15.40
2019-02-09T04:57:48.344Z,15.13
2019-02-09T05:00:27.771Z,24.17
2019-02-09T05:02:56.859Z,22.63
2019-02-09T05:05:26.421Z,20.37
2019-02-09T05:07:55.513Z,28.00
2019-02-09T05:10:25.136Z,18.67
2019-02-09T05:12:53.785Z,19.30
2019-02-09T05:15:22.856Z,23.73
2019-02-09T05:17:51.493Z,26.97
2019-02-09T05:20:25.376Z,20.57
2019-02-09T05:22:54.632Z,17.87
2019-02-09T05:25:23.555Z,34.93
2019-02-09T05:27:52.390Z,25.57
2019-02-09T05:30:28.322Z,33.27
2019-02-09T05:32:57.259Z,27.97
2019-02-09T05:35:26.380Z,34.73
2019-02-09T05:37:55.043Z,17.83
2019-02-09T05:40:25.273Z,19.93
2019-02-09T05:42:54.000Z,18.03
2019-02-09T05:45:27.268Z,23.73
2019-02-09T05:47:55.894Z,29.37
2019-02-09T05:50:24.824Z,25.00
2019-02-09T05:52:53.647Z,34.90
2019-02-09T05:55:22.281Z,38.13
2019-02-09T05:57:50.906Z,36.53
2019-02-09T06:00:35.167Z,34.13
2019-02-09T06:03:03.896Z,48.47
2019-02-09T06:05:32.603Z,28.10
2019-02-09T06:08:01.228Z,43.70
2019-02-09T06:10:29.858Z,39.43
2019-02-09T06:12:58.508Z,36.90
2019-02-09T06:15:28.707Z,30.80
2019-02-09T06:17:57.342Z,39.90
2019-02-09T06:20:30.694Z,39.17
2019-02-09T06:22:59.718Z,25.87
2019-02-09T06:25:28.460Z,34.70
2019-02-09T06:27:57.084Z,46.47
2019-02-09T06:30:33.051Z,47.03
2019-02-09T06:33:01.923Z,30.47
2019-02-09T06:35:30.836Z,25.83
2019-02-09T06:37:59.660Z,29.23
2019-02-09T06:40:28.555Z,43.43
2019-02-09T06:42:57.274Z,39.57
2019-02-09T06:45:27.000Z,20.67
2019-02-09T06:48:15.100Z,27.23
2019-02-09T06:50:43.698Z,28.30
2019-02-09T06:53:12.324Z,22.73
2019-02-09T06:55:40.873Z,22.47
2019-02-09T06:58:09.490Z,23.93
2019-02-09T07:00:37.981Z,21.80
2019-02-09T07:03:06.627Z,26.10
2019-02-09T07:05:35.258Z,65.33
2019-02-09T07:08:04.407Z,46.77
2019-02-09T07:10:35.905Z,53.57
2019-02-09T07:13:04.953Z,58.37
2019-02-09T07:15:35.941Z,56.23
2019-02-09T07:18:05.790Z,43.33
2019-02-09T07:20:34.370Z,61.20
2019-02-09T07:23:02.992Z,47.00
2019-02-09T07:25:31.656Z,51.23
2019-02-09T07:28:00.364Z,36.77
2019-02-09T07:30:30.900Z,27.23
2019-02-09T07:33:00.337Z,41.03
2019-02-09T07:35:28.956Z,42.07
2019-02-09T07:37:57.583Z,30.53
2019-02-09T07:40:27.146Z,43.78
2019-02-09T07:42:56.074Z,37.38
2019-02-09T07:45:31.215Z,26.57
2019-02-09T07:47:59.865Z,19.92
2019-02-09T07:50:28.794Z,27.70
2019-02-09T07:52:57.714Z,18.17
2019-02-09T07:55:27.282Z,21.23
2019-02-09T07:57:55.922Z,20.03
2019-02-09T08:00:26.981Z,18.10
2019-02-09T08:02:55.950Z,81.35
2019-02-09T08:05:26.486Z,47.20
2019-02-09T08:07:55.216Z,30.17
2019-02-09T08:10:32.665Z,18.37
2019-02-09T08:13:02.684Z,18.75
2019-02-09T08:15:32.514Z,23.00
2019-02-09T08:18:01.569Z,17.75
2019-02-09T08:20:31.398Z,27.60
2019-02-09T08:23:01.909Z,14.00
2019-02-09T08:25:33.745Z,24.37
2019-02-09T08:28:02.568Z,19.82
2019-02-09T08:30:42.407Z,19.23
2019-02-09T08:33:11.128Z,16.12
2019-02-09T08:35:40.376Z,14.83
2019-02-09T08:38:09.893Z,19.07
2019-02-09T08:40:38.621Z,15.30
2019-02-09T08:43:07.258Z,15.72
2019-02-09T08:45:35.911Z,21.25
2019-02-09T08:48:05.130Z,16.57
2019-02-09T08:50:35.962Z,20.48
2019-02-09T08:53:04.630Z,24.37
2019-02-09T08:55:33.251Z,22.30
2019-02-09T08:58:01.987Z,22.55
2019-02-09T09:00:33.100Z,24.27
2019-02-09T09:03:01.660Z,46.20
2019-02-09T09:05:30.389Z,26.52
2019-02-09T09:07:59.249Z,22.45
2019-02-09T09:10:31.773Z,22.70
2019-02-09T09:13:01.101Z,18.85
2019-02-09T09:15:44.224Z,22.90
2019-02-09T09:18:12.858Z,22.02
2019-02-09T09:20:49.969Z,22.55
2019-02-09T09:23:26.044Z,23.00
2019-02-09T09:25:54.948Z,24.35
2019-02-09T09:28:23.697Z,24.10
2019-02-09T09:30:52.182Z,31.87
2019-02-09T09:33:21.004Z,23.42
2019-02-09T09:35:49.639Z,25.75
2019-02-09T09:38:18.267Z,25.43
2019-02-09T09:40:47.150Z,25.82
2019-02-09T09:43:15.780Z,24.05
2019-02-09T09:45:45.112Z,18.98
2019-02-09T09:48:19.592Z,19.62
2019-02-09T09:50:48.219Z,23.35
2019-02-09T09:53:16.853Z,20.20
2019-02-09T09:55:45.452Z,51.13
2019-02-09T09:58:14.085Z,62.45
2019-02-09T10:00:42.757Z,24.63
2019-02-09T10:03:11.413Z,18.15
2019-02-09T10:05:40.053Z,21.57
2019-02-09T10:08:09.018Z,22.17
2019-02-09T10:10:37.705Z,17.23
2019-02-09T10:13:06.730Z,18.52
2019-02-09T10:15:35.563Z,25.52
2019-02-09T10:18:04.887Z,33.83
2019-02-09T10:20:33.562Z,18.00
2019-02-09T10:23:02.239Z,20.75
2019-02-09T10:25:30.908Z,19.40
2019-02-09T10:27:59.533Z,19.10
2019-02-09T10:30:32.521Z,22.85
2019-02-09T10:33:01.283Z,19.63
2019-02-09T10:35:30.004Z,25.15
2019-02-09T10:37:58.742Z,20.40
2019-02-09T10:40:32.843Z,21.45
2019-02-09T10:43:02.244Z,27.20
2019-02-09T10:45:31.865Z,28.40
2019-02-09T10:48:02.024Z,18.37
2019-02-09T10:50:42.127Z,22.70
2019-02-09T10:53:11.146Z,25.43
2019-02-09T10:55:39.967Z,23.73
2019-02-09T10:58:08.933Z,29.20
2019-02-09T11:00:46.359Z,29.57
2019-02-09T11:03:15.288Z,23.73
2019-02-09T11:05:44.009Z,38.37
2019-02-09T11:08:12.718Z,26.70
2019-02-09T11:10:41.440Z,21.17
2019-02-09T11:13:10.057Z,26.27
2019-02-09T11:15:38.784Z,26.82
2019-02-09T11:18:07.813Z,27.15
2019-02-09T11:20:36.444Z,22.00
2019-02-09T11:23:05.864Z,22.27
2019-02-09T11:25:34.496Z,24.65
2019-02-09T11:28:03.134Z,26.00
2019-02-09T11:30:32.094Z,26.10
2019-02-09T11:33:02.528Z,27.87
2019-02-09T11:35:31.000Z,27.10
2019-02-09T11:38:00.028Z,23.62
2019-02-09T11:40:29.870Z,25.35
2019-02-09T11:42:59.390Z,22.17
2019-02-09T11:45:33.381Z,34.43
2019-02-09T11:48:02.112Z,23.98
2019-02-09T11:50:30.740Z,26.15
2019-02-09T11:52:59.637Z,31.65
2019-02-09T11:55:28.272Z,29.05
2019-02-09T11:57:56.932Z,26.68
2019-02-09T12:00:36.847Z,35.83
2019-02-09T12:03:14.642Z,22.67
2019-02-09T12:05:36.425Z,23.42
2019-02-09T12:08:06.597Z,23.60
2019-02-09T12:10:35.221Z,20.50
2019-02-09T12:13:04.155Z,24.67
2019-02-09T12:15:35.197Z,24.95
2019-02-09T12:18:04.561Z,24.43
2019-02-09T12:20:33.181Z,26.35
2019-02-09T12:23:01.856Z,23.02
2019-02-09T12:25:32.857Z,28.20
2019-02-09T12:28:01.485Z,31.15
2019-02-09T12:30:32.668Z,29.98
2019-02-09T12:33:01.848Z,27.45
2019-02-09T12:35:30.565Z,31.82
2019-02-09T12:37:59.305Z,24.77
2019-02-09T12:40:34.636Z,21.73
2019-02-09T12:43:03.268Z,25.95
2019-02-09T12:45:34.740Z,27.77
2019-02-09T12:48:03.387Z,25.57
2019-02-09T12:50:32.409Z,30.57
2019-02-09T12:53:01.076Z,26.30
2019-02-09T12:55:29.910Z,24.65
2019-02-09T12:57:58.551Z,24.50
2019-02-09T13:00:29.302Z,22.22
2019-02-09T13:03:06.669Z,25.70
2019-02-09T13:05:35.331Z,28.12
2019-02-09T13:08:04.168Z,27.02
2019-02-09T13:10:32.730Z,30.68
2019-02-09T13:13:01.264Z,35.40
2019-02-09T13:15:31.637Z,29.55
2019-02-09T13:18:00.268Z,33.05
2019-02-09T13:20:31.159Z,27.55
2019-02-09T13:23:00.409Z,37.17
2019-02-09T13:25:29.046Z,25.62
2019-02-09T13:27:57.916Z,28.62
2019-02-09T13:30:35.274Z,30.97
2019-02-09T13:33:04.024Z,31.20
2019-02-09T13:35:32.706Z,25.37
2019-02-09T13:38:02.351Z,31.48
2019-02-09T13:40:31.113Z,25.65
2019-02-09T13:43:00.256Z,32.67
2019-02-09T13:45:33.911Z,31.70
2019-02-09T13:48:02.560Z,31.73
2019-02-09T13:50:32.481Z,29.77
2019-02-09T13:53:01.105Z,31.20
2019-02-09T13:55:29.779Z,30.63
2019-02-09T13:57:58.344Z,30.65
2019-02-09T14:00:29.357Z,40.73
2019-02-09T14:05:46.204Z,30.45
2019-02-09T14:08:14.729Z,36.40
2019-02-09T14:10:43.369Z,34.20
2019-02-09T14:13:14.596Z,160.70
2019-02-09T14:15:42.346Z,61.90
2019-02-09T14:18:11.666Z,38.08
2019-02-09T14:20:40.398Z,323.35
2019-02-09T14:23:09.092Z,102.67
2019-02-09T14:25:37.845Z,207.80
2019-02-09T14:28:07.355Z,549.08
2019-02-09T14:30:38.962Z,251.50
2019-02-09T14:33:12.018Z,389.25
2019-02-09T14:35:42.448Z,264.05
2019-02-09T14:38:11.126Z,135.23
2019-02-09T14:40:39.752Z,135.45
2019-02-09T14:43:09.480Z,128.57
2019-02-09T14:45:45.810Z,63.50
2019-02-09T14:48:14.376Z,69.07
2019-02-09T14:50:43.010Z,147.80
2019-02-09T14:53:12.386Z,73.60
2019-02-09T14:55:41.018Z,58.98
2019-02-09T14:58:09.654Z,249.50
2019-02-09T15:00:46.746Z,61.92
2019-02-09T15:03:15.781Z,70.40
2019-02-09T15:05:44.817Z,49.67
2019-02-09T15:08:13.472Z,40.45
2019-02-09T15:10:42.102Z,129.65
2019-02-09T15:13:12.193Z,46.70
2019-02-09T15:15:59.406Z,35.17
2019-02-09T15:18:28.035Z,31.95
2019-02-09T15:21:02.149Z,39.73
2019-02-09T15:23:30.750Z,67.60
2019-02-09T15:25:59.385Z,45.15
2019-02-09T15:28:28.137Z,45.73
2019-02-09T15:30:56.761Z,44.03
2019-02-09T15:33:25.317Z,40.27
2019-02-09T15:35:53.940Z,42.35
2019-02-09T15:38:22.532Z,38.10
2019-02-09T15:40:51.152Z,39.50
2019-02-09T15:43:19.788Z,49.30
2019-02-09T15:45:48.548Z,47.63
2019-02-09T15:48:17.096Z,45.67
2019-02-09T15:50:45.760Z,41.30
2019-02-09T15:53:14.385Z,43.97
2019-02-09T15:55:42.952Z,54.00
2019-02-09T15:58:11.633Z,40.87
2019-02-09T16:00:40.311Z,55.87
2019-02-09T16:03:08.933Z,45.98
2019-02-09T16:05:37.486Z,42.50
2019-02-09T16:08:07.653Z,44.63
2019-02-09T16:10:37.335Z,41.10
2019-02-09T16:13:07.580Z,41.03
2019-02-09T16:15:36.199Z,47.13
2019-02-09T16:18:06.129Z,44.70
2019-02-09T16:20:35.945Z,44.13
2019-02-09T16:23:05.309Z,44.63
2019-02-09T16:25:33.944Z,56.10
2019-02-09T16:28:02.579Z,57.60
2019-02-09T16:30:31.644Z,66.60
2019-02-09T16:33:00.280Z,75.73
2019-02-09T16:35:32.767Z,69.47
2019-02-09T16:38:01.427Z,75.97
2019-02-09T16:40:34.211Z,65.80
2019-02-09T16:43:02.845Z,66.87
2019-02-09T16:45:36.046Z,73.13
2019-02-09T16:48:06.265Z,74.03
2019-02-09T16:50:34.905Z,70.90
2019-02-09T16:53:03.505Z,74.00
2019-02-09T16:55:32.134Z,77.90
2019-02-09T16:58:00.637Z,68.77
2019-02-09T17:00:32.266Z,75.87
2019-02-09T17:03:00.999Z,84.40
2019-02-09T17:05:29.838Z,73.00
2019-02-09T17:07:58.661Z,86.13
2019-02-09T17:10:27.295Z,145.60
2019-02-09T17:12:55.926Z,129.97
2019-02-09T17:15:26.851Z,178.00
2019-02-09T17:17:55.488Z,148.23
2019-02-09T17:20:24.303Z,135.93
2019-02-09T17:22:53.070Z,110.70
2019-02-09T17:25:23.960Z,98.77
2019-02-09T17:27:52.974Z,85.10
2019-02-09T17:30:29.997Z,70.73
2019-02-09T17:32:58.616Z,74.13
2019-02-09T17:35:27.242Z,61.73
2019-02-09T17:37:56.334Z,80.30
2019-02-09T17:40:33.456Z,66.07
2019-02-09T17:43:02.121Z,64.33
2019-02-09T17:45:45.506Z,71.43
2019-02-09T17:48:14.171Z,65.33
2019-02-09T17:50:42.729Z,71.07
2019-02-09T17:53:11.351Z,74.13
2019-02-09T17:55:40.024Z,79.90
2019-02-09T17:58:08.762Z,83.90
2019-02-09T18:00:41.721Z,85.47
2019-02-09T18:03:10.561Z,86.63
2019-02-09T18:05:39.182Z,87.57
2019-02-09T18:08:08.296Z,90.93
2019-02-09T18:10:37.322Z,104.30
2019-02-09T18:13:06.448Z,95.70
2019-02-09T18:15:35.085Z,108.27
2019-02-09T18:18:09.611Z,109.00
2019-02-09T18:20:38.483Z,107.70
2019-02-09T18:23:07.085Z,95.43
2019-02-09T18:25:36.002Z,111.50
2019-02-09T18:28:05.737Z,102.37
2019-02-09T18:30:34.958Z,105.00
2019-02-09T18:33:03.619Z,94.70
2019-02-09T18:35:32.177Z,110.57
2019-02-09T18:38:00.753Z,113.67
2019-02-09T18:40:29.522Z,97.00
2019-02-09T18:42:58.151Z,88.13
2019-02-09T18:45:29.242Z,93.17
2019-02-09T18:47:57.907Z,89.00
2019-02-09T18:50:31.677Z,94.13
2019-02-09T18:53:01.867Z,78.67
2019-02-09T18:55:31.415Z,80.23
2019-02-09T18:58:00.246Z,81.17
2019-02-09T19:00:31.822Z,83.43
2019-02-09T19:03:00.859Z,75.33
2019-02-09T19:05:29.476Z,75.77
2019-02-09T19:07:58.144Z,76.47
2019-02-09T19:10:28.276Z,90.27
2019-02-09T19:12:56.895Z,86.60
2019-02-09T19:15:27.830Z,92.40
2019-02-09T19:17:57.513Z,105.27
2019-02-09T19:20:31.512Z,94.27
2019-02-09T19:23:00.413Z,86.00
2019-02-09T19:25:29.531Z,89.73
2019-02-09T19:27:58.178Z,74.33
2019-02-09T19:30:27.649Z,80.40
2019-02-09T19:32:56.364Z,83.50
2019-02-09T19:35:24.983Z,74.93
2019-02-09T19:37:54.114Z,76.57
2019-02-09T19:40:28.834Z,73.50
2019-02-09T19:42:59.938Z,80.90
2019-02-09T19:45:36.912Z,66.93
2019-02-09T19:48:07.254Z,65.77
2019-02-09T19:50:35.877Z,67.50
2019-02-09T19:53:05.003Z,60.13
2019-02-09T19:55:35.259Z,63.47
2019-02-09T19:58:04.800Z,68.33
2019-02-09T20:00:42.351Z,61.80
2019-02-09T20:03:11.051Z,70.87
2019-02-09T20:05:39.677Z,75.27
2019-02-09T20:08:09.852Z,71.03
2019-02-09T20:10:43.239Z,79.43
2019-02-09T20:13:13.062Z,86.93
2019-02-09T20:15:41.720Z,84.40
2019-02-09T20:18:11.536Z,93.37
2019-02-09T20:20:46.846Z,100.00
2019-02-09T20:23:10.568Z,107.00
2019-02-09T20:25:39.175Z,100.30
2019-02-09T20:28:08.289Z,103.80
2019-02-09T20:30:38.522Z,100.30
2019-02-09T20:33:07.545Z,104.07
2019-02-09T20:35:36.278Z,104.20
2019-02-09T20:38:06.981Z,92.57
2019-02-09T20:40:53.220Z,93.77
2019-02-09T20:43:22.783Z,96.67
2019-02-09T20:45:51.325Z,101.00
2019-02-09T20:48:19.878Z,97.60
2019-02-09T20:50:48.541Z,95.57
2019-02-09T20:53:17.181Z,92.53
2019-02-09T20:55:45.915Z,100.97
2019-02-09T20:58:14.993Z,100.17
2019-02-09T21:00:43.610Z,91.43
2019-02-09T21:03:12.246Z,81.50
2019-02-09T21:05:40.919Z,88.13
2019-02-09T21:08:09.600Z,99.20
2019-02-09T21:10:45.060Z,97.17
2019-02-09T21:13:13.665Z,94.93
2019-02-09T21:15:42.289Z,111.13
2019-02-09T21:18:10.920Z,70.60
2019-02-09T21:20:39.516Z,69.43
2019-02-09T21:23:08.158Z,103.73
2019-02-09T21:25:41.920Z,90.03
2019-02-09T21:28:10.782Z,97.20
2019-02-09T21:30:39.348Z,76.23
2019-02-09T21:33:07.983Z,82.23
2019-02-09T21:35:43.472Z,72.73
2019-02-09T21:38:07.143Z,69.67
2019-02-09T21:40:35.862Z,66.33
2019-02-09T21:43:04.948Z,58.23
2019-02-09T21:45:33.617Z,69.33
2019-02-09T21:48:02.061Z,57.10
2019-02-09T21:50:35.850Z,51.90
2019-02-09T21:53:05.468Z,47.07
2019-02-09T21:55:34.028Z,45.73
2019-02-09T21:58:02.687Z,50.00
2019-02-09T22:00:36.155Z,65.47
2019-02-09T22:03:06.190Z,61.63
2019-02-09T22:05:34.867Z,70.87
2019-02-09T22:08:03.500Z,72.83
2019-02-09T22:10:33.989Z,84.10
2019-02-09T22:13:03.178Z,91.20
2019-02-09T22:15:38.351Z,92.57
2019-02-09T22:18:03.153Z,85.67
2019-02-09T22:20:31.745Z,85.97
2019-02-09T22:23:00.377Z,88.67
2019-02-09T22:25:30.099Z,85.23
2019-02-09T22:27:59.088Z,91.83
2019-02-09T22:30:32.191Z,89.83
2019-02-09T22:33:01.170Z,84.97
2019-02-09T22:35:30.542Z,88.73
2019-02-09T22:37:59.862Z,95.50
2019-02-09T22:40:40.313Z,86.73
2019-02-09T22:43:09.065Z,84.33
2019-02-09T22:45:37.766Z,86.50
2019-02-09T22:48:08.047Z,97.77
2019-02-09T22:50:39.347Z,73.47
2019-02-09T22:53:07.972Z,77.13
2019-02-09T22:55:38.108Z,58.83
2019-02-09T22:58:07.028Z,82.23
2019-02-09T23:00:54.056Z,90.03
2019-02-09T23:03:25.659Z,73.00
2019-02-09T23:06:12.662Z,77.20
2019-02-09T23:08:42.793Z,89.37
2019-02-09T23:11:11.427Z,83.83
2019-02-09T23:13:40.096Z,79.20
2019-02-09T23:16:08.643Z,80.80
2019-02-09T23:18:37.205Z,79.50
2019-02-09T23:21:05.897Z,84.90
2019-02-09T23:23:34.528Z,90.53
2019-02-09T23:26:03.018Z,86.77
2019-02-09T23:28:31.549Z,84.70
2019-02-09T23:31:00.189Z,88.70
2019-02-09T23:33:28.817Z,91.03
2019-02-09T23:35:57.363Z,90.67
2019-02-09T23:38:25.981Z,93.50
2019-02-09T23:40:54.475Z,99.73
2019-02-09T23:43:23.290Z,89.07
2019-02-09T23:45:51.899Z,96.97
2019-02-09T23:48:20.592Z,90.30
2019-02-09T23:50:49.133Z,92.80
2019-02-09T23:53:17.634Z,100.33
2019-02-09T23:55:46.271Z,103.17
2019-02-09T23:58:14.937Z,97.97
